Time;durP1;ratioP1;P1;durP2;ratioP2;P2;SDS_P1;SDS_P2;PMS_P1;PMS_P2;Temp;Humidity;BMP_temperature;BMP_pressure;BME280_temperature;BME280_humidity;BME280_pressure;Samples;Min_cycle;Max_cycle;Signal;HPM_P1;HPM_P2
2023/05/25 00:00:14;;;;;;;12.38;3.78;;;17.60;87.40;;;;;;5075145;28;20024;-68
2023/05/25 00:02:41;;;;;;;7.97;2.92;;;17.60;87.70;;;;;;5074675;28;20027;-68
2023/05/25 00:05:08;;;;;;;8.07;3.22;;;17.60;87.70;;;;;;5074925;28;20020;-68
2023/05/25 00:07:33;;;;;;;11.90;3.03;;;17.60;87.80;;;;;;5073386;28;20086;-68
2023/05/25 00:09:59;;;;;;;7.22;3.60;;;17.60;88.00;;;;;;5074785;28;20032;-68
2023/05/25 00:12:24;;;;;;;7.32;3.30;;;17.50;88.10;;;;;;5074235;28;20040;-68
2023/05/25 00:14:50;;;;;;;9.55;3.45;;;17.50;88.10;;;;;;5074731;28;20016;-68
2023/05/25 00:17:17;;;;;;;8.45;2.92;;;17.50;88.30;;;;;;5074642;28;20090;-68
2023/05/25 00:19:43;;;;;;;9.68;3.72;;;17.50;88.60;;;;;;5074583;28;20021;-68
2023/05/25 00:22:10;;;;;;;11.20;3.30;;;17.50;88.80;;;;;;5074348;28;20056;-68
2023/05/25 00:24:36;;;;;;;7.65;3.35;;;17.40;89.00;;;;;;5074465;28;20481;-68
2023/05/25 00:27:02;;;;;;;9.07;3.50;;;17.40;89.10;;;;;;5073945;28;20063;-68
2023/05/25 00:29:28;;;;;;;8.60;3.28;;;17.40;89.10;;;;;;5055246;28;20080;-68
2023/05/25 00:31:54;;;;;;;11.80;3.85;;;17.40;89.30;;;;;;5050574;28;20061;-68
2023/05/25 00:34:20;;;;;;;8.90;3.50;;;17.40;89.40;;;;;;5051377;28;20021;-68
2023/05/25 00:36:47;;;;;;;11.55;4.50;;;17.40;89.50;;;;;;5052146;28;20036;-68
2023/05/25 00:39:17;;;;;;;12.30;3.75;;;17.30;89.50;;;;;;5054376;28;20025;-68
2023/05/25 00:41:47;;;;;;;6.97;3.40;;;17.40;89.70;;;;;;5053938;28;20478;-68
2023/05/25 00:44:14;;;;;;;12.25;3.53;;;17.30;89.70;;;;;;5054089;28;20036;-68
2023/05/25 00:46:50;;;;;;;10.43;4.18;;;17.30;89.80;;;;;;5054117;28;20363;-68
2023/05/25 00:49:18;;;;;;;11.32;3.92;;;17.30;90.00;;;;;;5053858;28;20043;-68
2023/05/25 00:51:45;;;;;;;9.18;4.00;;;17.30;90.00;;;;;;5053832;28;20148;-68
2023/05/25 00:54:13;;;;;;;12.65;3.80;;;17.20;90.00;;;;;;5053748;28;20051;-68
2023/05/25 00:56:40;;;;;;;10.88;4.00;;;17.30;90.10;;;;;;5053568;28;20117;-68
2023/05/25 00:59:08;;;;;;;13.50;4.25;;;17.20;90.10;;;;;;5053650;28;20025;-68
2023/05/25 01:01:38;;;;;;;11.88;4.18;;;17.20;90.20;;;;;;5053625;28;20072;-68
2023/05/25 01:04:08;;;;;;;10.55;4.43;;;17.10;90.20;;;;;;5053478;28;20080;-68
2023/05/25 01:06:37;;;;;;;10.20;4.15;;;17.10;90.20;;;;;;5053697;28;20497;-68
2023/05/25 01:09:04;;;;;;;11.95;4.10;;;17.10;90.30;;;;;;5052339;28;20017;-68
2023/05/25 01:11:36;;;;;;;11.05;4.32;;;17.10;90.30;;;;;;5053276;28;20497;-68
2023/05/25 01:14:02;;;;;;;12.02;4.88;;;17.10;90.30;;;;;;5053354;28;20059;-68
2023/05/25 01:16:28;;;;;;;13.88;5.18;;;17.10;90.40;;;;;;5053491;28;20079;-68
2023/05/25 01:18:54;;;;;;;9.75;4.38;;;17.10;90.40;;;;;;5053198;28;20027;-68
2023/05/25 01:21:40;;;;;;;8.80;4.15;;;17.10;90.50;;;;;;5053337;28;20025;-68
2023/05/25 01:24:32;;;;;;;12.30;4.57;;;17.00;90.50;;;;;;5053354;28;20044;-68
2023/05/25 01:27:23;;;;;;;10.40;4.45;;;17.00;90.60;;;;;;5052583;28;20112;-68
2023/05/25 01:29:50;;;;;;;16.88;5.20;;;17.00;90.60;;;;;;5053185;28;20021;-68
2023/05/25 01:32:17;;;;;;;10.43;4.20;;;17.00;90.70;;;;;;5053163;28;20540;-68
2023/05/25 01:34:43;;;;;;;12.82;4.72;;;17.00;90.70;;;;;;5053294;28;20063;-68
2023/05/25 01:37:12;;;;;;;11.90;4.57;;;16.90;90.70;;;;;;5053071;28;20025;-68
2023/05/25 01:39:39;;;;;;;12.10;4.93;;;16.90;90.80;;;;;;5051378;28;20414;-68
2023/05/25 01:42:04;;;;;;;13.35;4.88;;;17.00;90.90;;;;;;5052764;28;20035;-68
2023/05/25 01:44:30;;;;;;;13.43;5.20;;;16.90;90.90;;;;;;5052992;28;20441;-68
2023/05/25 01:47:06;;;;;;;11.95;4.97;;;16.80;91.00;;;;;;5053595;28;20517;-68
2023/05/25 01:49:50;;;;;;;10.15;4.78;;;16.90;91.30;;;;;;5052809;28;20454;-68
2023/05/25 01:52:35;;;;;;;11.38;4.80;;;16.90;91.10;;;;;;5052951;28;20040;-68
2023/05/25 01:55:12;;;;;;;11.82;5.13;;;16.80;91.10;;;;;;5068092;28;20520;-68
2023/05/25 01:57:43;;;;;;;10.75;4.25;;;16.80;91.10;;;;;;5053546;28;20528;-68
2023/05/25 02:00:11;;;;;;;11.02;4.90;;;16.80;91.20;;;;;;5052919;28;20033;-68
2023/05/25 02:02:41;;;;;;;11.48;4.43;;;16.70;91.20;;;;;;5053068;28;20013;-68
2023/05/25 02:05:08;;;;;;;11.55;4.80;;;16.70;91.30;;;;;;5052908;28;20082;-68
2023/05/25 02:07:33;;;;;;;12.60;5.15;;;16.70;91.30;;;;;;5052878;28;20039;-68
2023/05/25 02:09:59;;;;;;;14.80;5.32;;;16.70;91.40;;;;;;5052459;28;20374;-68
2023/05/25 02:12:25;;;;;;;10.68;4.38;;;16.70;91.40;;;;;;5052593;28;20474;-68
2023/05/25 02:14:50;;;;;;;12.13;5.47;;;16.60;91.50;;;;;;5056897;28;20382;-68
2023/05/25 02:17:19;;;;;;;14.48;5.32;;;16.60;91.50;;;;;;5056742;28;20029;-68
2023/05/25 02:19:46;;;;;;;11.68;4.47;;;16.60;91.50;;;;;;5057056;28;20032;-68
2023/05/25 02:22:12;;;;;;;10.20;4.97;;;16.60;91.60;;;;;;5056472;28;20024;-68
2023/05/25 02:24:37;;;;;;;12.63;4.35;;;16.70;91.60;;;;;;5056931;28;20040;-68
2023/05/25 02:27:04;;;;;;;15.18;4.97;;;16.60;91.60;;;;;;5056297;28;20108;-68
2023/05/25 02:29:30;;;;;;;13.75;5.20;;;16.60;91.70;;;;;;5056553;28;20100;-68
2023/05/25 02:31:55;;;;;;;10.95;4.90;;;16.60;91.70;;;;;;5056390;28;20041;-68
2023/05/25 02:34:21;;;;;;;13.25;4.47;;;16.50;91.80;;;;;;5056632;28;20021;-68
2023/05/25 02:36:47;;;;;;;11.02;4.85;;;16.50;91.80;;;;;;5056251;28;20021;-68
2023/05/25 02:39:12;;;;;;;16.50;5.95;;;16.50;91.80;;;;;;5056534;28;20025;-68
2023/05/25 02:41:38;;;;;;;9.40;4.57;;;16.50;91.80;;;;;;5056797;28;20029;-68
2023/05/25 02:44:04;;;;;;;9.90;4.65;;;16.50;91.80;;;;;;5056220;28;20564;-68
2023/05/25 02:46:30;;;;;;;10.55;4.10;;;16.50;91.90;;;;;;5056488;28;20025;-68
2023/05/25 02:48:57;;;;;;;12.82;5.22;;;16.40;91.90;;;;;;5056308;28;20024;-68
2023/05/25 02:51:23;;;;;;;10.98;5.40;;;16.40;91.90;;;;;;5055664;28;20032;-68
2023/05/25 02:53:48;;;;;;;13.02;4.80;;;16.40;91.90;;;;;;5056310;28;20021;-68
2023/05/25 02:56:14;;;;;;;12.13;4.80;;;16.40;92.00;;;;;;5056107;28;20044;-68
2023/05/25 02:58:40;;;;;;;10.82;4.88;;;16.40;92.10;;;;;;5055953;28;20029;-68
2023/05/25 03:01:09;;;;;;;9.18;4.70;;;16.40;92.00;;;;;;5055827;28;20025;-68
2023/05/25 03:03:35;;;;;;;13.32;4.75;;;16.40;92.10;;;;;;5056126;28;20021;-68
2023/05/25 03:06:02;;;;;;;8.40;4.38;;;16.30;92.10;;;;;;5055782;28;20025;-68
2023/05/25 03:08:28;;;;;;;11.73;4.78;;;16.30;92.10;;;;;;5055898;28;20032;-68
2023/05/25 03:10:54;;;;;;;9.88;4.70;;;16.30;92.40;;;;;;5055631;28;20385;-68
2023/05/25 03:13:20;;;;;;;11.30;4.72;;;16.30;92.20;;;;;;5055726;28;20029;-68
2023/05/25 03:15:45;;;;;;;9.43;4.72;;;16.30;92.20;;;;;;5055826;28;20032;-68
2023/05/25 03:18:11;;;;;;;12.70;5.40;;;16.30;92.20;;;;;;5055733;28;20105;-68
2023/05/25 03:20:36;;;;;;;12.25;5.82;;;16.30;92.20;;;;;;5055405;28;20548;-68
2023/05/25 03:23:02;;;;;;;12.90;5.63;;;16.20;92.30;;;;;;5055581;28;20470;-68
2023/05/25 03:25:27;;;;;;;13.45;5.63;;;16.20;92.30;;;;;;5055561;28;20021;-68
2023/05/25 03:27:53;;;;;;;12.10;5.05;;;16.20;92.30;;;;;;5055151;28;20041;-68
2023/05/25 03:30:20;;;;;;;11.18;5.05;;;16.20;92.30;;;;;;5055529;28;20051;-68
2023/05/25 03:32:46;;;;;;;12.45;4.88;;;16.20;92.30;;;;;;5055233;28;20482;-68
2023/05/25 03:35:13;;;;;;;10.55;5.32;;;16.20;92.40;;;;;;5055339;28;20128;-68
2023/05/25 03:37:38;;;;;;;11.65;5.30;;;16.10;92.40;;;;;;5055330;28;20049;-68
2023/05/25 03:40:04;;;;;;;9.75;5.05;;;16.10;92.40;;;;;;5055288;28;20505;-68
2023/05/25 03:42:30;;;;;;;10.05;5.55;;;16.10;92.50;;;;;;5055024;28;20482;-68
2023/05/25 03:44:55;;;;;;;12.15;5.97;;;16.10;92.50;;;;;;5055427;28;20028;-68
2023/05/25 03:47:21;;;;;;;14.38;5.95;;;16.10;92.50;;;;;;5055092;28;20029;-68
2023/05/25 03:49:46;;;;;;;10.55;5.68;;;16.10;92.60;;;;;;5054930;28;20478;-68
2023/05/25 03:52:12;;;;;;;14.05;5.65;;;16.10;92.60;;;;;;5054961;28;20505;-68
2023/05/25 03:54:38;;;;;;;11.15;5.55;;;16.00;92.60;;;;;;5055597;28;20467;-68
2023/05/25 03:57:03;;;;;;;12.55;5.93;;;16.00;92.70;;;;;;5054910;28;20029;-67
2023/05/25 03:59:29;;;;;;;13.75;5.35;;;16.00;92.70;;;;;;5054926;28;20109;-68
2023/05/25 04:01:55;;;;;;;11.30;5.65;;;16.00;92.80;;;;;;5054951;28;20458;-68
2023/05/25 04:04:21;;;;;;;10.20;5.32;;;16.00;92.80;;;;;;5054709;28;20025;-68
2023/05/25 04:06:47;;;;;;;9.85;5.53;;;15.90;92.80;;;;;;5054945;28;20056;-68
2023/05/25 04:09:14;;;;;;;15.73;6.80;;;16.00;92.90;;;;;;5054719;28;20123;-67
2023/05/25 04:11:39;;;;;;;12.07;5.82;;;15.90;92.90;;;;;;5054664;28;20041;-67
2023/05/25 04:14:05;;;;;;;13.32;6.35;;;15.90;93.00;;;;;;5054624;28;20021;-68
2023/05/25 04:16:31;;;;;;;11.05;5.88;;;15.90;93.00;;;;;;5054823;28;20025;-68
2023/05/25 04:18:56;;;;;;;16.45;6.43;;;15.90;93.10;;;;;;5053547;28;20520;-67
2023/05/25 04:21:22;;;;;;;12.60;6.03;;;15.90;92.50;;;;;;5054655;28;20092;-66
2023/05/25 04:23:47;;;;;;;16.05;6.32;;;15.80;92.50;;;;;;5054464;28;20013;-66
2023/05/25 04:26:15;;;;;;;11.45;5.93;;;15.90;92.40;;;;;;5054563;28;20389;-66
2023/05/25 04:28:40;;;;;;;10.95;5.90;;;15.90;92.40;;;;;;5054311;28;20029;-67
2023/05/25 04:31:07;;;;;;;12.80;5.85;;;15.90;92.40;;;;;;5054370;28;20052;-68
2023/05/25 04:33:37;;;;;;;13.55;6.07;;;15.90;92.40;;;;;;5054241;28;20025;-66
2023/05/25 04:36:03;;;;;;;9.75;5.55;;;16.00;92.50;;;;;;5053696;28;20436;-66
2023/05/25 04:38:29;;;;;;;12.35;6.05;;;15.90;92.50;;;;;;5054103;28;20017;-68
2023/05/25 04:40:56;;;;;;;12.45;5.35;;;15.90;92.40;;;;;;5054399;28;20111;-67
2023/05/25 04:43:24;;;;;;;10.43;5.70;;;15.90;92.50;;;;;;5054163;28;20085;-68
2023/05/25 04:45:51;;;;;;;15.27;5.93;;;15.90;92.50;;;;;;5054113;28;20024;-67
2023/05/25 04:48:17;;;;;;;12.00;5.93;;;15.90;92.60;;;;;;5053832;28;20025;-66
2023/05/25 04:50:42;;;;;;;16.30;5.95;;;15.90;92.70;;;;;;5053660;28;20040;-66
2023/05/25 04:53:08;;;;;;;9.07;4.95;;;15.90;92.50;;;;;;5053944;28;20359;-67
2023/05/25 04:55:33;;;;;;;12.75;6.25;;;15.90;92.50;;;;;;5053758;28;20029;-68
2023/05/25 04:57:59;;;;;;;11.88;5.97;;;16.00;92.50;;;;;;5053719;28;20025;-68
2023/05/25 05:00:25;;;;;;;11.30;6.38;;;15.90;92.50;;;;;;5050916;28;20084;-68
2023/05/25 05:02:51;;;;;;;11.57;6.25;;;15.90;92.60;;;;;;5033503;28;20030;-67
2023/05/25 05:05:16;;;;;;;10.68;6.10;;;16.00;92.60;;;;;;5033678;28;20022;-67
2023/05/25 05:07:42;;;;;;;11.93;5.10;;;15.90;92.60;;;;;;5032674;28;20478;-67
2023/05/25 05:10:08;;;;;;;12.60;6.05;;;15.90;92.70;;;;;;5042461;28;20080;-67
2023/05/25 05:12:34;;;;;;;9.90;5.15;;;15.90;92.60;;;;;;5053615;28;20416;-67
2023/05/25 05:14:59;;;;;;;10.20;6.10;;;15.90;92.70;;;;;;5037732;28;20507;-66
2023/05/25 05:17:26;;;;;;;12.85;5.88;;;15.90;92.70;;;;;;5040988;28;20049;-66
2023/05/25 05:19:52;;;;;;;15.60;6.10;;;15.90;92.80;;;;;;5036990;28;20020;-68
2023/05/25 05:22:18;;;;;;;11.43;6.20;;;15.90;92.80;;;;;;5052014;28;20448;-67
2023/05/25 05:24:44;;;;;;;10.43;5.80;;;15.90;92.90;;;;;;5037210;28;20026;-66
2023/05/25 05:27:12;;;;;;;15.38;6.63;;;15.90;92.70;;;;;;5037878;28;20053;-68
2023/05/25 05:29:38;;;;;;;9.70;5.97;;;15.90;92.90;;;;;;5048314;28;20025;-68
2023/05/25 05:32:04;;;;;;;13.38;6.43;;;15.90;93.10;;;;;;5049322;28;20037;-67
2023/05/25 05:34:29;;;;;;;14.68;5.53;;;15.90;92.90;;;;;;5047125;28;20048;-67
2023/05/25 05:36:55;;;;;;;9.38;5.90;;;16.00;92.90;;;;;;5041585;28;20025;-65
2023/05/25 05:39:20;;;;;;;14.15;6.60;;;15.90;93.10;;;;;;5048360;28;20541;-65
2023/05/25 05:41:46;;;;;;;10.68;6.28;;;16.00;92.90;;;;;;5032224;28;20030;-65
2023/05/25 05:44:11;;;;;;;14.55;5.93;;;16.00;92.90;;;;;;5034695;28;20021;-65
2023/05/25 05:46:37;;;;;;;12.68;5.85;;;16.10;93.00;;;;;;5035484;28;20030;-63
2023/05/25 05:49:03;;;;;;;11.35;5.30;;;16.10;93.20;;;;;;5051602;28;20027;-67
2023/05/25 05:51:28;;;;;;;10.65;5.43;;;16.10;93.20;;;;;;5048116;28;20171;-66
2023/05/25 05:53:54;;;;;;;12.98;4.80;;;16.20;93.40;;;;;;5050322;28;20382;-68
2023/05/25 05:56:20;;;;;;;11.02;5.70;;;16.30;93.20;;;;;;5044807;28;20401;-65
2023/05/25 05:58:48;;;;;;;10.35;5.43;;;16.40;93.10;;;;;;5034422;28;20021;-65
2023/05/25 06:01:15;;;;;;;10.98;6.43;;;16.50;93.10;;;;;;5037553;28;20034;-65
2023/05/25 06:03:41;;;;;;;10.30;5.60;;;16.50;93.30;;;;;;5036329;28;20025;-66
2023/05/25 06:06:07;;;;;;;11.02;5.50;;;16.60;93.00;;;;;;5042487;28;20021;-66
2023/05/25 06:08:33;;;;;;;10.27;5.40;;;16.70;92.80;;;;;;5033420;28;20498;-66
2023/05/25 06:10:58;;;;;;;11.75;5.90;;;16.90;92.50;;;;;;5034672;28;20449;-66
2023/05/25 06:13:24;;;;;;;12.30;5.80;;;16.90;92.70;;;;;;5032456;28;20026;-66
2023/05/25 06:15:49;;;;;;;10.95;5.43;;;16.90;92.40;;;;;;5032426;28;20048;-66
2023/05/25 06:18:15;;;;;;;8.85;4.97;;;17.00;92.10;;;;;;5032718;28;20060;-66
2023/05/25 06:20:40;;;;;;;9.55;4.97;;;17.10;91.90;;;;;;5032426;28;20475;-66
2023/05/25 06:23:08;;;;;;;11.77;5.28;;;17.10;92.10;;;;;;5032804;28;20037;-66
2023/05/25 06:25:33;;;;;;;11.30;5.15;;;17.10;91.90;;;;;;5045452;28;20546;-67
2023/05/25 06:27:59;;;;;;;10.55;4.20;;;17.10;91.50;;;;;;5032298;28;20108;-66
2023/05/25 06:30:24;;;;;;;11.32;5.38;;;17.20;91.00;;;;;;5031941;28;20493;-66
2023/05/25 06:32:50;;;;;;;10.43;5.60;;;17.30;91.00;;;;;;5044994;28;20402;-66
2023/05/25 06:35:18;;;;;;;13.75;4.70;;;17.40;90.70;;;;;;5045808;28;20037;-66
2023/05/25 06:37:47;;;;;;;13.13;4.75;;;17.40;90.70;;;;;;5037879;28;20108;-66
2023/05/25 06:40:14;;;;;;;7.10;3.50;;;17.60;90.20;;;;;;5036830;28;20040;-65
2023/05/25 06:42:40;;;;;;;9.05;4.60;;;17.60;90.00;;;;;;5032547;28;20018;-67
2023/05/25 06:45:06;;;;;;;9.05;4.43;;;17.60;90.10;;;;;;5044615;28;20017;-65
2023/05/25 06:47:32;;;;;;;8.63;3.72;;;17.60;90.10;;;;;;5035221;28;20201;-66
2023/05/25 06:49:58;;;;;;;7.60;3.85;;;17.60;90.10;;;;;;5036979;28;20105;-66
2023/05/25 06:52:26;;;;;;;9.13;4.10;;;17.60;89.90;;;;;;5050487;28;20037;-66
2023/05/25 06:54:53;;;;;;;10.25;4.15;;;17.70;89.70;;;;;;5035783;28;20022;-65
2023/05/25 06:57:18;;;;;;;9.80;4.05;;;17.70;89.70;;;;;;5043275;28;20060;-67
2023/05/25 06:59:44;;;;;;;7.65;3.33;;;17.80;89.90;;;;;;5047793;28;20083;-66
2023/05/25 07:02:10;;;;;;;9.57;3.80;;;17.80;90.00;;;;;;5038888;28;20026;-66
2023/05/25 07:04:36;;;;;;;10.38;4.38;;;17.90;89.90;;;;;;5039601;28;20021;-66
2023/05/25 07:07:01;;;;;;;8.15;3.67;;;18.00;88.90;;;;;;5044192;28;20120;-66
2023/05/25 07:09:27;;;;;;;8.85;3.40;;;18.00;88.90;;;;;;5041291;28;20037;-67
2023/05/25 07:11:52;;;;;;;10.07;4.13;;;18.00;89.30;;;;;;5048945;28;20046;-67
2023/05/25 07:14:18;;;;;;;8.05;3.63;;;18.10;88.90;;;;;;5039612;28;20028;-67
2023/05/25 07:16:43;;;;;;;9.65;3.35;;;18.10;88.60;;;;;;5038187;28;20435;-67
2023/05/25 07:19:10;;;;;;;10.73;3.40;;;18.20;89.50;;;;;;5054321;28;20031;-67
2023/05/25 07:21:35;;;;;;;7.13;3.30;;;18.30;88.20;;;;;;5058034;28;20027;-67
2023/05/25 07:24:02;;;;;;;7.10;3.63;;;18.30;87.70;;;;;;5048667;28;20014;-67
2023/05/25 07:26:29;;;;;;;8.50;3.25;;;18.40;87.20;;;;;;5045060;28;20075;-67
2023/05/25 07:28:54;;;;;;;10.10;3.38;;;18.50;87.00;;;;;;5038401;28;20053;-67
2023/05/25 07:31:21;;;;;;;8.27;4.03;;;18.50;86.80;;;;;;5039347;28;20067;-67
2023/05/25 07:33:46;;;;;;;6.78;3.17;;;18.50;87.10;;;;;;5045688;28;20029;-66
2023/05/25 07:36:12;;;;;;;7.97;3.47;;;18.50;87.10;;;;;;5034716;28;20486;-67
2023/05/25 07:38:37;;;;;;;136.45;15.32;;;18.60;86.50;;;;;;5035906;28;20028;-67
2023/05/25 07:41:03;;;;;;;8.70;4.05;;;18.70;86.90;;;;;;5034642;28;20104;-67
2023/05/25 07:43:28;;;;;;;7.35;3.17;;;18.70;86.80;;;;;;5033397;28;20071;-67
2023/05/25 07:45:54;;;;;;;10.38;4.13;;;18.80;86.70;;;;;;5034843;28;20028;-67
2023/05/25 07:48:20;;;;;;;9.10;3.45;;;18.80;86.30;;;;;;5034850;28;20026;-67
2023/05/25 07:50:45;;;;;;;9.50;3.88;;;18.80;86.70;;;;;;5034489;28;20029;-67
2023/05/25 07:53:11;;;;;;;7.18;3.63;;;18.90;86.70;;;;;;5038199;28;20025;-66
2023/05/25 07:55:36;;;;;;;8.43;3.70;;;18.90;85.90;;;;;;5033656;28;20494;-68
2023/05/25 07:58:02;;;;;;;8.82;3.42;;;19.00;85.70;;;;;;5033949;28;20034;-67
2023/05/25 08:00:28;;;;;;;6.30;3.10;;;19.10;85.50;;;;;;5035059;28;20084;-67
2023/05/25 08:02:54;;;;;;;8.30;3.15;;;19.10;84.80;;;;;;5035798;28;20059;-67
2023/05/25 08:05:20;;;;;;;5.50;2.55;;;19.10;84.80;;;;;;5041509;28;20025;-68
2023/05/25 08:07:46;;;;;;;8.23;3.60;;;19.10;84.50;;;;;;5034152;28;20071;-67
2023/05/25 08:10:11;;;;;;;7.78;3.00;;;19.10;84.90;;;;;;5033178;28;20060;-67
2023/05/25 08:12:37;;;;;;;10.07;3.42;;;19.10;85.00;;;;;;5033085;28;20394;-67
2023/05/25 08:15:03;;;;;;;7.22;2.88;;;19.20;85.00;;;;;;5043611;28;20057;-67
2023/05/25 08:17:29;;;;;;;9.60;3.90;;;19.20;85.50;;;;;;5034020;28;20100;-67
2023/05/25 08:19:55;;;;;;;6.65;3.22;;;19.30;84.60;;;;;;5041093;28;20021;-67
2023/05/25 08:22:20;;;;;;;7.18;3.05;;;19.30;85.20;;;;;;5051781;28;20337;-67
2023/05/25 08:24:46;;;;;;;9.00;3.13;;;19.30;85.00;;;;;;5045852;28;20021;-67
2023/05/25 08:27:12;;;;;;;7.20;3.28;;;19.30;85.50;;;;;;5034244;28;20033;-67
2023/05/25 08:29:37;;;;;;;5.25;2.45;;;19.30;85.20;;;;;;5039177;28;20026;-67
2023/05/25 08:32:03;;;;;;;8.57;2.97;;;19.30;86.00;;;;;;5045464;28;20112;-67
2023/05/25 08:34:29;;;;;;;12.93;4.05;;;19.40;86.60;;;;;;5038981;28;20016;-67
2023/05/25 08:36:56;;;;;;;8.50;4.00;;;19.40;83.70;;;;;;5034388;28;20037;-66
2023/05/25 08:39:22;;;;;;;8.48;4.00;;;19.50;82.90;;;;;;5041172;28;20013;-66
2023/05/25 08:41:49;;;;;;;7.45;3.70;;;19.50;82.10;;;;;;5043599;28;20025;-67
2023/05/25 08:44:15;;;;;;;7.63;4.47;;;19.60;81.50;;;;;;5050516;28;20021;-67
2023/05/25 08:46:41;;;;;;;8.00;3.20;;;19.60;81.40;;;;;;5049426;28;20108;-67
2023/05/25 08:49:12;;;;;;;6.93;4.25;;;19.70;82.00;;;;;;5041865;28;20082;-65
2023/05/25 08:51:46;;;;;;;13.98;4.68;;;19.70;81.50;;;;;;5038175;28;20510;-70
2023/05/25 08:54:12;;;;;;;9.73;4.65;;;19.70;81.10;;;;;;5045277;28;20020;-70
2023/05/25 08:57:06;;;;;;;16.77;4.60;;;19.70;81.20;;;;;;5073254;28;20036;-70
2023/05/25 08:59:35;;;;;;;12.25;4.35;;;19.70;81.60;;;;;;5043295;28;20104;-72
2023/05/25 09:02:15;;;;;;;14.13;4.22;;;19.70;81.80;;;;;;5052485;28;20064;-72
2023/05/25 09:04:41;;;;;;;8.70;4.43;;;19.80;81.80;;;;;;5047572;28;20485;-72
2023/05/25 09:07:07;;;;;;;9.02;3.97;;;19.80;80.90;;;;;;5033786;28;20442;-71
2023/05/25 09:09:35;;;;;;;8.57;3.60;;;19.80;81.00;;;;;;5033421;28;20045;-71
2023/05/25 09:12:02;;;;;;;9.88;4.45;;;19.80;81.20;;;;;;5033682;28;20032;-71
2023/05/25 09:14:27;;;;;;;8.10;3.70;;;19.90;80.60;;;;;;5058325;28;20039;-71
2023/05/25 09:16:53;;;;;;;8.27;4.55;;;19.90;80.20;;;;;;5052322;28;20110;-71
2023/05/25 09:19:19;;;;;;;9.48;3.90;;;19.90;80.40;;;;;;5055870;28;20470;-72
2023/05/25 09:21:44;;;;;;;7.22;3.50;;;19.90;80.60;;;;;;5047481;28;20135;-71
2023/05/25 09:24:10;;;;;;;9.88;4.15;;;20.00;80.90;;;;;;5041663;28;20056;-71
2023/05/25 09:26:36;;;;;;;12.73;3.65;;;20.00;80.60;;;;;;5033619;28;20049;-75
2023/05/25 09:29:02;;;;;;;10.20;3.67;;;20.00;81.10;;;;;;5033435;28;20072;-69
2023/05/25 09:31:28;;;;;;;9.40;3.83;;;20.00;80.10;;;;;;5033202;28;20041;-73
2023/05/25 09:33:58;;;;;;;9.13;3.80;;;20.00;80.60;;;;;;5033230;28;20025;-71
2023/05/25 09:36:25;;;;;;;7.72;3.88;;;20.00;80.80;;;;;;5032495;28;20483;-73
2023/05/25 09:38:53;;;;;;;6.55;2.90;;;20.00;80.60;;;;;;5038338;28;20028;-73
2023/05/25 09:41:18;;;;;;;8.60;2.95;;;20.00;81.20;;;;;;5037759;28;20018;-73
2023/05/25 09:43:45;;;;;;;8.05;3.45;;;20.00;80.90;;;;;;5041957;28;20029;-75
2023/05/25 09:46:11;;;;;;;6.55;3.35;;;20.10;80.20;;;;;;5033066;28;20033;-73
2023/05/25 09:48:36;;;;;;;6.70;3.20;;;20.00;80.10;;;;;;5042534;28;20028;-75
2023/05/25 09:51:02;;;;;;;4.68;2.90;;;20.00;79.80;;;;;;5050522;28;20029;-74
2023/05/25 09:53:28;;;;;;;6.18;3.05;;;19.90;79.80;;;;;;5038786;28;20105;-75
2023/05/25 09:55:55;;;;;;;6.05;2.95;;;20.00;80.00;;;;;;5031764;28;20355;-76
2023/05/25 09:58:25;;;;;;;6.13;3.00;;;19.90;80.20;;;;;;5049616;28;20029;-72
2023/05/25 10:00:54;;;;;;;6.05;3.40;;;19.90;81.30;;;;;;5044751;28;20030;-74
2023/05/25 10:03:20;;;;;;;6.07;3.25;;;20.00;79.70;;;;;;5042979;28;20032;-70
2023/05/25 10:05:46;;;;;;;6.78;2.67;;;20.00;79.30;;;;;;5049317;28;20086;-69
2023/05/25 10:08:12;;;;;;;5.72;2.35;;;20.00;79.20;;;;;;5039373;28;20025;-68
2023/05/25 10:10:40;;;;;;;5.68;2.72;;;20.00;79.90;;;;;;5035249;28;20382;-71
2023/05/25 10:13:08;;;;;;;6.60;2.60;;;20.00;80.20;;;;;;5039948;28;20034;-74
2023/05/25 10:15:39;;;;;;;7.22;2.40;;;20.00;86.80;;;;;;5043494;28;20037;-75
2023/05/25 10:18:06;;;;;;;4.05;2.20;;;20.00;87.90;;;;;;5045714;28;20035;-76
2023/05/25 10:20:32;;;;;;;7.22;3.20;;;20.00;83.80;;;;;;5035300;28;20116;-77
2023/05/25 10:23:03;;;;;;;5.20;2.63;;;20.10;84.20;;;;;;5041268;28;20033;-77
2023/05/25 10:25:33;;;;;;;6.00;2.70;;;20.10;81.70;;;;;;5032512;28;20028;-74
2023/05/25 10:28:03;;;;;;;6.45;2.63;;;20.10;80.70;;;;;;5036845;28;20108;-77
2023/05/25 10:30:30;;;;;;;5.88;2.88;;;20.10;80.90;;;;;;5037932;28;20029;-75
2023/05/25 10:32:56;;;;;;;8.02;3.45;;;20.10;80.10;;;;;;5041544;28;20041;-74
2023/05/25 10:35:23;;;;;;;6.78;2.78;;;20.10;80.00;;;;;;5047943;28;20035;-72
2023/05/25 10:37:52;;;;;;;5.35;2.83;;;20.10;80.00;;;;;;5033841;28;20426;-77
2023/05/25 10:40:20;;;;;;;8.05;2.85;;;20.10;79.90;;;;;;5049080;28;20540;-75
2023/05/25 10:42:46;;;;;;;7.13;3.20;;;20.10;80.50;;;;;;5054572;28;20025;-73
2023/05/25 10:45:12;;;;;;;9.90;3.50;;;20.10;80.30;;;;;;5045961;28;20029;-72
2023/05/25 10:47:42;;;;;;;12.48;3.38;;;20.10;80.00;;;;;;5054571;28;20083;-69
2023/05/25 10:50:23;;;;;;;6.63;2.80;;;20.10;80.20;;;;;;5054010;28;20348;-72
2023/05/25 10:53:04;;;;;;;14.73;3.00;;;20.10;80.50;;;;;;5042036;28;20065;-72
2023/05/25 10:55:47;;;;;;;6.28;2.78;;;20.10;81.00;;;;;;5037332;28;20026;-72
2023/05/25 10:58:15;;;;;;;7.60;2.70;;;20.10;79.90;;;;;;5048560;28;20103;-74
2023/05/25 11:00:41;;;;;;;8.13;2.90;;;20.10;80.40;;;;;;5044281;28;20128;-73
2023/05/25 11:03:07;;;;;;;10.82;2.60;;;20.00;80.40;;;;;;5047528;28;20025;-73
2023/05/25 11:05:39;;;;;;;9.63;3.10;;;20.00;80.70;;;;;;5045066;28;20028;-75
2023/05/25 11:08:07;;;;;;;4.60;2.45;;;20.10;80.70;;;;;;5041404;28;20056;-73
2023/05/25 11:10:48;;;;;;;6.95;2.60;;;20.00;80.50;;;;;;5035554;28;20033;-74
2023/05/25 11:13:42;;;;;;;6.07;2.50;;;20.00;80.40;;;;;;5034340;28;20034;-73
2023/05/25 11:16:23;;;;;;;7.03;2.38;;;20.10;81.00;;;;;;5035658;28;20022;-74
2023/05/25 11:18:50;;;;;;;5.55;2.83;;;20.10;80.30;;;;;;5033698;28;20107;-74
2023/05/25 11:21:25;;;;;;;8.88;2.97;;;20.10;80.30;;;;;;5063022;28;20021;-74
2023/05/25 11:24:02;;;;;;;7.18;2.90;;;20.10;80.90;;;;;;5043886;28;20561;-74
2023/05/25 11:26:29;;;;;;;7.18;3.65;;;20.10;80.30;;;;;;5054871;28;20025;-72
2023/05/25 11:28:57;;;;;;;7.78;3.88;;;20.10;80.60;;;;;;5039795;28;20045;-73
2023/05/25 11:31:29;;;;;;;6.93;3.22;;;20.10;80.80;;;;;;5048870;28;20553;-74
2023/05/25 11:33:57;;;;;;;6.60;3.17;;;20.10;81.00;;;;;;5034087;28;20108;-73
2023/05/25 11:36:23;;;;;;;7.40;3.33;;;20.20;80.90;;;;;;5035150;28;20026;-74
2023/05/25 11:38:51;;;;;;;7.38;3.22;;;20.10;81.30;;;;;;5034838;28;20041;-74
2023/05/25 11:41:23;;;;;;;9.07;3.22;;;20.20;81.10;;;;;;5033703;28;20127;-74
2023/05/25 11:43:50;;;;;;;5.60;2.75;;;20.20;80.00;;;;;;5054683;28;20029;-72
2023/05/25 11:46:20;;;;;;;8.77;2.88;;;20.10;80.00;;;;;;5046048;28;20029;-74
2023/05/25 11:48:53;;;;;;;7.68;3.33;;;20.10;80.40;;;;;;5051685;28;20021;-74
2023/05/25 11:51:23;;;;;;;9.05;3.55;;;20.10;80.10;;;;;;5054283;28;20436;-75
2023/05/25 11:53:49;;;;;;;8.75;3.08;;;20.10;80.60;;;;;;5055565;28;20021;-76
2023/05/25 11:56:17;;;;;;;8.43;3.22;;;20.00;80.90;;;;;;5047839;28;20040;-73
2023/05/25 11:58:44;;;;;;;7.78;2.50;;;20.10;81.10;;;;;;5039519;28;20025;-73
2023/05/25 12:01:19;;;;;;;8.90;3.40;;;20.10;81.70;;;;;;5054928;28;20067;-74
2023/05/25 12:03:46;;;;;;;9.35;3.28;;;20.20;80.40;;;;;;5053388;28;20025;-73
2023/05/25 12:06:29;;;;;;;7.20;3.08;;;20.20;79.90;;;;;;5052260;28;20107;-73
2023/05/25 12:08:56;;;;;;;6.60;3.13;;;20.20;79.80;;;;;;5054903;28;20104;-73
2023/05/25 12:11:32;;;;;;;6.95;2.25;;;20.20;80.00;;;;;;5043130;28;20108;-73
2023/05/25 12:13:59;;;;;;;8.52;2.97;;;20.20;79.80;;;;;;5032888;28;20034;-73
2023/05/25 12:16:25;;;;;;;7.57;3.50;;;20.20;79.90;;;;;;5034374;28;20067;-74
2023/05/25 12:18:52;;;;;;;7.55;2.78;;;20.30;80.10;;;;;;5034219;28;20049;-73
2023/05/25 12:21:20;;;;;;;7.57;3.40;;;20.30;80.20;;;;;;5034624;28;20071;-73
2023/05/25 12:23:46;;;;;;;5.22;2.80;;;20.30;80.20;;;;;;5034569;28;20049;-72
2023/05/25 12:26:13;;;;;;;7.13;3.22;;;20.30;80.50;;;;;;5034740;28;20061;-74
2023/05/25 12:28:39;;;;;;;11.05;3.22;;;20.40;80.20;;;;;;5034297;28;20033;-74
2023/05/25 12:31:25;;;;;;;6.90;3.30;;;20.40;80.20;;;;;;5033132;28;20478;-72
2023/05/25 12:34:14;;;;;;;7.88;3.13;;;20.40;79.20;;;;;;5034287;28;20029;-73
2023/05/25 12:36:53;;;;;;;8.80;3.38;;;20.30;80.30;;;;;;5034471;28;20029;-73
2023/05/25 12:39:27;;;;;;;6.72;2.75;;;20.30;79.30;;;;;;5032917;28;20482;-73
2023/05/25 12:41:54;;;;;;;8.10;2.88;;;20.30;79.30;;;;;;5032639;28;20398;-72
2023/05/25 12:44:21;;;;;;;6.95;2.92;;;20.30;79.70;;;;;;5034176;28;20041;-72